createdAt,value
2022-09-27T00:00:05.214Z,3.22
2022-09-27T00:02:38.712Z,4.05
2022-09-27T00:05:05.598Z,4.38
2022-09-27T00:07:32.505Z,3.67
2022-09-27T00:09:59.613Z,3.97
2022-09-27T00:12:26.291Z,3.53
2022-09-27T00:14:52.978Z,2.40
2022-09-27T00:17:19.620Z,2.45
2022-09-27T00:19:46.281Z,2.38
2022-09-27T00:22:12.917Z,2.80
2022-09-27T00:24:39.581Z,2.53
2022-09-27T00:27:06.220Z,1.92
2022-09-27T00:29:32.908Z,1.98
2022-09-27T00:31:59.583Z,1.70
2022-09-27T00:34:26.602Z,1.90
2022-09-27T00:36:53.746Z,1.60
2022-09-27T00:39:20.939Z,1.80
2022-09-27T00:44:26.928Z,1.60
2022-09-27T00:47:03.929Z,2.00
2022-09-27T00:49:36.705Z,2.05
2022-09-27T00:52:13.819Z,1.88
2022-09-27T00:54:44.377Z,1.80
2022-09-27T00:57:11.206Z,1.80
2022-09-27T00:59:49.704Z,1.80
2022-09-27T01:02:16.633Z,2.17
2022-09-27T01:04:44.694Z,2.20
2022-09-27T01:07:11.734Z,1.83
2022-09-27T01:09:39.334Z,2.30
2022-09-27T01:12:44.965Z,2.40
2022-09-27T01:15:37.120Z,2.00
2022-09-27T01:18:15.938Z,2.35
2022-09-27T01:21:19.905Z,3.05
2022-09-27T01:24:11.157Z,2.92
2022-09-27T01:27:26.478Z,3.67
2022-09-27T01:30:17.035Z,3.47
2022-09-27T01:33:14.798Z,3.40
2022-09-27T01:36:06.888Z,3.22
2022-09-27T01:38:57.729Z,3.40
2022-09-27T01:41:43.330Z,3.20
2022-09-27T01:44:20.466Z,2.88
2022-09-27T01:47:04.334Z,2.80
2022-09-27T01:49:55.261Z,2.63
2022-09-27T01:52:29.712Z,3.30
2022-09-27T01:55:00.334Z,3.15
2022-09-27T01:57:42.891Z,3.20
2022-09-27T02:00:17.230Z,2.80
2022-09-27T02:02:52.896Z,2.60
2022-09-27T02:05:35.794Z,2.30
2022-09-27T02:08:45.643Z,2.40
2022-09-27T02:11:22.512Z,2.60
2022-09-27T02:14:13.347Z,3.55
2022-09-27T02:16:51.709Z,3.20
2022-09-27T02:19:29.718Z,3.25
2022-09-27T02:22:18.122Z,3.22
2022-09-27T02:24:53.220Z,3.60
2022-09-27T02:27:28.738Z,3.72
2022-09-27T02:30:04.157Z,3.88
2022-09-27T02:32:32.594Z,3.30
2022-09-27T02:35:05.755Z,3.58
2022-09-27T02:37:33.144Z,3.75
2022-09-27T02:40:00.948Z,3.35
2022-09-27T02:42:28.494Z,3.30
2022-09-27T02:44:55.335Z,3.25
2022-09-27T02:47:43.310Z,2.63
2022-09-27T02:53:41.570Z,1.67
2022-09-27T02:56:54.922Z,1.95
2022-09-27T03:00:05.252Z,1.70
2022-09-27T03:03:17.096Z,1.70
2022-09-27T03:05:59.499Z,1.30
2022-09-27T03:08:26.718Z,1.45
2022-09-27T03:10:53.473Z,1.65
2022-09-27T03:13:20.248Z,1.63
2022-09-27T03:15:46.954Z,1.42
2022-09-27T03:18:33.342Z,2.05
2022-09-27T03:21:18.845Z,2.60
2022-09-27T03:23:46.428Z,2.80
2022-09-27T03:26:13.443Z,2.40
2022-09-27T03:28:40.311Z,2.25
2022-09-27T03:31:07.201Z,2.30
2022-09-27T03:33:45.641Z,2.55
2022-09-27T03:38:39.672Z,2.67
2022-09-27T03:41:09.884Z,2.67
2022-09-27T03:46:04.511Z,2.90
2022-09-27T03:48:31.545Z,3.05
2022-09-27T03:50:58.421Z,3.20
2022-09-27T03:53:25.554Z,3.33
2022-09-27T03:55:52.599Z,3.08
2022-09-27T03:58:19.377Z,4.63
2022-09-27T04:00:46.782Z,7.30
2022-09-27T04:03:14.286Z,5.70
2022-09-27T04:06:04.445Z,4.10
2022-09-27T04:08:37.924Z,3.78
2022-09-27T04:11:06.218Z,5.28
2022-09-27T04:13:33.215Z,4.90
2022-09-27T04:16:00.124Z,4.10
2022-09-27T04:18:46.653Z,3.55
2022-09-27T04:21:41.652Z,4.10
2022-09-27T04:24:11.776Z,4.05
2022-09-27T04:26:40.015Z,3.95
2022-09-27T04:29:12.113Z,4.45
2022-09-27T04:31:44.039Z,5.00
2022-09-27T04:35:05.264Z,2.97
2022-09-27T04:37:33.063Z,3.78
2022-09-27T04:40:03.814Z,3.58
2022-09-27T04:42:34.012Z,3.58
2022-09-27T04:47:27.314Z,3.03
2022-09-27T04:49:53.983Z,2.30
2022-09-27T04:52:20.657Z,3.40
2022-09-27T04:54:47.718Z,4.25
2022-09-27T04:57:14.526Z,2.78
2022-09-27T04:59:42.667Z,2.45
2022-09-27T05:02:09.792Z,2.75
2022-09-27T05:04:58.830Z,2.53
2022-09-27T05:07:28.564Z,3.30
2022-09-27T05:10:01.324Z,4.50
2022-09-27T05:12:28.997Z,3.03
2022-09-27T05:14:58.709Z,2.80
2022-09-27T05:17:40.626Z,2.22
2022-09-27T05:20:25.974Z,1.73
2022-09-27T05:23:04.673Z,2.35
2022-09-27T05:25:32.829Z,2.47
2022-09-27T05:27:59.644Z,2.20
2022-09-27T05:30:27.692Z,2.60
2022-09-27T05:33:05.105Z,1.90
2022-09-27T05:35:57.621Z,1.40
2022-09-27T05:38:29.963Z,1.50
2022-09-27T05:40:59.282Z,1.98
2022-09-27T05:43:26.193Z,1.92
2022-09-27T05:45:53.437Z,1.67
2022-09-27T05:48:24.626Z,1.88
2022-09-27T05:52:07.049Z,1.55
2022-09-27T05:54:34.352Z,1.50
2022-09-27T05:57:01.265Z,1.70
2022-09-27T05:59:45.073Z,2.35
2022-09-27T06:02:32.412Z,2.42
2022-09-27T06:05:17.658Z,2.78
2022-09-27T06:08:12.647Z,3.22
2022-09-27T06:10:45.286Z,2.53
2022-09-27T06:13:15.402Z,3.03
2022-09-27T06:15:46.300Z,2.80
2022-09-27T06:18:17.104Z,3.28
2022-09-27T06:20:46.545Z,3.08
2022-09-27T06:23:15.827Z,3.00
2022-09-27T06:25:42.952Z,2.40
2022-09-27T06:28:17.301Z,4.03
2022-09-27T06:30:48.494Z,3.33
2022-09-27T06:33:34.205Z,3.10
2022-09-27T06:36:07.468Z,3.20
2022-09-27T06:38:36.667Z,2.83
2022-09-27T06:41:12.908Z,2.70
2022-09-27T06:43:51.757Z,3.42
2022-09-27T06:46:39.848Z,3.30
2022-09-27T06:49:25.288Z,3.78
2022-09-27T06:51:52.605Z,3.15
2022-09-27T06:54:21.266Z,2.78
2022-09-27T06:56:48.456Z,2.42
2022-09-27T06:59:33.698Z,2.78
2022-09-27T07:02:19.138Z,2.70
2022-09-27T07:05:04.969Z,3.80
2022-09-27T07:07:48.663Z,2.85
2022-09-27T07:10:18.058Z,4.22
2022-09-27T07:12:48.639Z,4.00
2022-09-27T07:15:16.405Z,3.92
2022-09-27T07:17:43.089Z,4.00
2022-09-27T07:20:10.049Z,3.95
2022-09-27T07:22:45.117Z,4.03
2022-09-27T07:25:13.688Z,5.07
2022-09-27T07:27:42.005Z,5.78
2022-09-27T07:30:11.858Z,4.20
2022-09-27T07:32:38.668Z,3.55
2022-09-27T07:35:10.908Z,3.63
2022-09-27T07:37:38.425Z,3.33
2022-09-27T07:40:09.388Z,4.13
2022-09-27T07:42:41.596Z,3.38
2022-09-27T07:45:09.697Z,4.70
2022-09-27T07:48:12.521Z,3.75
2022-09-27T07:50:55.873Z,3.20
2022-09-27T07:53:51.913Z,3.67
2022-09-27T07:56:51.802Z,2.97
2022-09-27T07:59:20.940Z,3.63
2022-09-27T08:01:47.602Z,2.88
2022-09-27T08:04:14.258Z,3.75
2022-09-27T08:06:42.657Z,3.90
2022-09-27T08:09:09.882Z,3.78
2022-09-27T08:11:38.201Z,3.72
2022-09-27T08:14:05.025Z,3.72
2022-09-27T08:16:34.459Z,3.72
2022-09-27T08:19:13.174Z,2.67
2022-09-27T08:21:44.840Z,3.08
2022-09-27T08:24:17.548Z,3.05
2022-09-27T08:27:02.833Z,3.30
2022-09-27T08:29:46.004Z,3.15
2022-09-27T08:34:39.436Z,2.88
2022-09-27T08:37:06.330Z,3.00
2022-09-27T08:39:33.269Z,3.33
2022-09-27T08:42:25.973Z,3.80
2022-09-27T08:45:14.666Z,3.63
2022-09-27T08:47:47.755Z,3.80
2022-09-27T08:50:40.011Z,4.07
2022-09-27T08:53:33.580Z,3.90
2022-09-27T08:56:04.258Z,3.28
2022-09-27T08:58:53.515Z,3.22
2022-09-27T09:01:28.704Z,3.65
2022-09-27T09:04:25.717Z,4.43
2022-09-27T09:07:22.981Z,3.95
2022-09-27T09:10:38.949Z,4.30
2022-09-27T09:13:21.332Z,3.90
2022-09-27T09:16:07.726Z,4.03
2022-09-27T09:19:11.158Z,3.92
2022-09-27T09:22:08.291Z,3.90
2022-09-27T09:24:35.129Z,4.90
2022-09-27T09:27:16.583Z,4.30
2022-09-27T09:30:02.307Z,4.43
2022-09-27T09:32:55.387Z,4.20
2022-09-27T09:35:35.087Z,4.30
2022-09-27T09:38:24.932Z,4.13
2022-09-27T09:41:07.570Z,4.30
2022-09-27T09:44:03.109Z,4.20
2022-09-27T09:46:43.445Z,3.50
2022-09-27T09:49:20.011Z,3.03
2022-09-27T09:51:52.759Z,2.97
2022-09-27T09:54:25.282Z,2.72
2022-09-27T09:57:36.675Z,2.47
2022-09-27T10:00:12.930Z,3.08
2022-09-27T10:02:44.583Z,3.00
2022-09-27T10:05:21.157Z,3.00
2022-09-27T10:07:55.018Z,1.48
2022-09-27T10:10:22.458Z,1.58
2022-09-27T10:12:56.191Z,1.90
2022-09-27T10:15:30.677Z,1.38
2022-09-27T10:17:59.362Z,1.00
2022-09-27T10:20:32.530Z,0.80
2022-09-27T10:23:21.720Z,0.73
2022-09-27T10:26:19.039Z,0.70
2022-09-27T10:28:51.031Z,0.50
2022-09-27T10:31:23.366Z,0.70
2022-09-27T10:34:05.164Z,0.60
2022-09-27T10:36:38.715Z,0.40
2022-09-27T10:39:07.016Z,0.50
2022-09-27T10:41:41.645Z,0.30
2022-09-27T10:44:28.835Z,0.43
2022-09-27T10:47:25.375Z,0.40
2022-09-27T10:50:07.784Z,0.30
2022-09-27T10:53:20.585Z,0.38
2022-09-27T10:55:56.602Z,0.35
2022-09-27T11:01:12.167Z,0.40
2022-09-27T11:04:02.551Z,0.30
2022-09-27T11:06:37.618Z,0.30
2022-09-27T11:09:26.297Z,0.10
2022-09-27T11:12:15.228Z,0.20
2022-09-27T11:15:00.859Z,0.20
2022-09-27T11:17:50.542Z,0.30
2022-09-27T11:20:31.098Z,0.20
2022-09-27T11:23:20.285Z,0.38
2022-09-27T11:26:16.726Z,0.28
2022-09-27T11:29:15.645Z,0.00
2022-09-27T11:32:22.547Z,0.15
2022-09-27T11:34:58.400Z,0.13
2022-09-27T11:37:34.122Z,0.10
2022-09-27T11:40:25.824Z,0.10
2022-09-27T11:43:34.497Z,0.20
2022-09-27T11:46:25.322Z,0.00
2022-09-27T11:49:15.768Z,0.10
2022-09-27T11:52:19.341Z,0.00
2022-09-27T11:54:56.487Z,0.08
2022-09-27T11:57:43.695Z,0.00
2022-09-27T12:00:21.494Z,0.05
2022-09-27T12:03:45.185Z,0.00
2022-09-27T12:06:31.847Z,0.20
2022-09-27T12:09:08.054Z,0.10
2022-09-27T12:12:04.652Z,0.10
2022-09-27T12:14:42.718Z,0.20
2022-09-27T12:17:21.164Z,0.10
2022-09-27T12:19:54.806Z,0.20
2022-09-27T12:22:58.006Z,0.10
2022-09-27T12:25:37.824Z,0.35
2022-09-27T12:28:39.459Z,0.20
2022-09-27T12:31:28.848Z,0.20
2022-09-27T12:34:20.593Z,0.20
2022-09-27T12:36:59.021Z,0.25
2022-09-27T12:39:28.163Z,0.10
2022-09-27T12:42:16.613Z,0.15
2022-09-27T12:44:50.541Z,0.25
2022-09-27T12:47:28.071Z,0.30
2022-09-27T12:50:25.253Z,0.25
2022-09-27T12:52:57.152Z,0.28
2022-09-27T12:55:30.666Z,0.10
2022-09-27T12:58:34.845Z,0.20
2022-09-27T13:01:39.160Z,0.28
2022-09-27T13:04:27.584Z,0.10
2022-09-27T13:07:08.045Z,0.20
2022-09-27T13:10:00.363Z,0.30
2022-09-27T13:12:32.596Z,0.17
2022-09-27T13:15:24.000Z,0.10
2022-09-27T13:17:56.466Z,0.10
2022-09-27T13:20:42.451Z,0.10
2022-09-27T13:23:34.537Z,0.30
2022-09-27T13:26:20.099Z,0.20
2022-09-27T13:28:54.861Z,0.30
2022-09-27T13:31:55.294Z,0.20
2022-09-27T13:34:50.472Z,0.17
2022-09-27T13:37:36.318Z,0.10
2022-09-27T13:40:25.057Z,0.30
2022-09-27T13:43:43.545Z,0.10
2022-09-27T13:46:27.802Z,0.10
2022-09-27T13:49:14.973Z,0.00
2022-09-27T13:52:21.840Z,0.30
2022-09-27T13:55:06.501Z,0.10
2022-09-27T13:58:03.752Z,0.10
2022-09-27T14:00:42.812Z,0.20
2022-09-27T14:03:12.631Z,0.20
2022-09-27T14:05:59.490Z,0.10
2022-09-27T14:08:43.879Z,0.10
2022-09-27T14:11:13.925Z,0.20
2022-09-27T14:13:45.282Z,0.10
2022-09-27T14:16:16.805Z,0.10
2022-09-27T14:18:50.745Z,0.15
2022-09-27T14:21:30.632Z,0.30
2022-09-27T14:24:20.158Z,0.30
2022-09-27T14:26:48.847Z,0.47
2022-09-27T14:29:21.087Z,0.30
2022-09-27T14:32:03.116Z,0.40
2022-09-27T14:34:39.751Z,0.30
2022-09-27T14:37:26.385Z,0.50
2022-09-27T14:40:06.719Z,0.60
2022-09-27T14:42:39.066Z,0.47
2022-09-27T14:45:27.420Z,0.47
2022-09-27T14:47:54.113Z,0.77
2022-09-27T14:50:28.882Z,0.35
2022-09-27T14:52:59.355Z,0.65
2022-09-27T14:55:29.202Z,0.57
2022-09-27T14:58:00.683Z,0.77
2022-09-27T15:00:33.864Z,0.75
2022-09-27T15:03:09.182Z,0.50
2022-09-27T15:05:36.076Z,0.60
2022-09-27T15:08:06.300Z,0.38
2022-09-27T15:10:36.160Z,0.55
2022-09-27T15:13:05.117Z,0.70
2022-09-27T15:15:38.178Z,0.68
2022-09-27T15:18:33.608Z,0.88
2022-09-27T15:21:01.593Z,0.50
2022-09-27T15:23:39.995Z,0.50
2022-09-27T15:26:25.197Z,0.60
2022-09-27T15:28:52.933Z,0.63
2022-09-27T15:31:35.067Z,1.00
2022-09-27T15:34:02.988Z,0.50
2022-09-27T15:36:52.633Z,0.68
2022-09-27T15:39:27.222Z,0.75
2022-09-27T15:42:05.270Z,0.95
2022-09-27T15:44:38.230Z,1.15
2022-09-27T15:47:05.268Z,1.02
2022-09-27T15:49:35.904Z,1.05
2022-09-27T15:52:05.217Z,5.32
2022-09-27T15:54:35.631Z,6.38
2022-09-27T15:57:05.293Z,5.43
2022-09-27T15:59:35.282Z,5.57
2022-09-27T16:02:08.218Z,10.18
2022-09-27T16:04:35.123Z,3.10
2022-09-27T16:07:04.201Z,2.60
2022-09-27T16:09:31.188Z,2.17
2022-09-27T16:11:57.866Z,2.03
2022-09-27T16:14:24.572Z,1.67
2022-09-27T16:16:54.244Z,1.20
2022-09-27T16:19:21.189Z,1.08
2022-09-27T16:21:48.400Z,2.17
2022-09-27T16:24:15.835Z,3.97
2022-09-27T16:29:12.263Z,2.00
2022-09-27T16:31:40.054Z,2.00
2022-09-27T16:34:09.153Z,2.58
2022-09-27T16:36:36.024Z,1.67
2022-09-27T16:39:04.977Z,4.10
2022-09-27T16:41:33.175Z,5.30
2022-09-27T16:44:05.577Z,2.65
2022-09-27T16:46:34.540Z,2.53
2022-09-27T16:49:01.730Z,2.92
2022-09-27T16:51:47.208Z,3.47
2022-09-27T16:54:15.825Z,2.60
2022-09-27T16:56:42.833Z,2.42
2022-09-27T16:59:09.622Z,3.70
2022-09-27T17:01:36.405Z,4.10
2022-09-27T17:04:03.520Z,7.95
2022-09-27T17:06:31.796Z,6.15
2022-09-27T17:09:03.003Z,4.90
2022-09-27T17:11:30.934Z,4.78
2022-09-27T17:13:57.989Z,5.50
2022-09-27T17:16:25.321Z,4.43
2022-09-27T17:21:18.756Z,3.85
2022-09-27T17:23:45.477Z,3.60
2022-09-27T17:26:20.946Z,2.88
2022-09-27T17:28:49.801Z,2.47
2022-09-27T17:31:18.474Z,1.85
2022-09-27T17:33:47.733Z,4.20
2022-09-27T17:36:18.120Z,3.38
2022-09-27T17:38:45.977Z,1.67
2022-09-27T17:41:18.958Z,1.50
2022-09-27T17:43:50.183Z,1.17
2022-09-27T17:46:19.246Z,1.67
2022-09-27T17:49:05.930Z,3.28
2022-09-27T17:51:34.481Z,3.70
2022-09-27T17:54:01.473Z,3.25
2022-09-27T17:56:28.502Z,2.30
2022-09-27T17:58:56.342Z,0.82
2022-09-27T18:01:24.818Z,1.30
2022-09-27T18:03:56.491Z,1.60
2022-09-27T18:06:23.735Z,2.20
2022-09-27T18:08:50.703Z,2.10
2022-09-27T18:11:21.906Z,2.50
2022-09-27T18:13:49.152Z,5.03
2022-09-27T18:16:18.451Z,6.03
2022-09-27T18:18:48.138Z,3.42
2022-09-27T18:21:19.203Z,2.13
2022-09-27T18:23:45.865Z,0.93
2022-09-27T18:26:12.508Z,2.55
2022-09-27T18:28:40.940Z,1.80
2022-09-27T18:31:19.020Z,2.92
2022-09-27T18:33:45.973Z,2.42
2022-09-27T18:36:15.770Z,1.88
2022-09-27T18:38:42.709Z,1.80
2022-09-27T18:41:11.932Z,2.20
2022-09-27T18:43:39.681Z,1.90
2022-09-27T18:46:33.949Z,2.90
2022-09-27T18:48:56.322Z,2.90
2022-09-27T18:54:01.630Z,2.15
2022-09-27T18:56:29.429Z,1.30
2022-09-27T18:58:56.793Z,1.80
2022-09-27T19:03:51.345Z,2.17
2022-09-27T19:06:22.755Z,2.33
2022-09-27T19:09:00.278Z,2.35
2022-09-27T19:11:28.137Z,2.75
2022-09-27T19:13:56.900Z,2.90
2022-09-27T19:16:24.815Z,2.85
2022-09-27T19:18:52.025Z,2.67
2022-09-27T19:21:21.337Z,3.20
2022-09-27T19:23:49.775Z,3.03
2022-09-27T19:26:19.442Z,3.35
2022-09-27T19:28:47.050Z,4.00
2022-09-27T19:31:20.222Z,2.72
2022-09-27T19:33:47.810Z,1.60
2022-09-27T19:36:17.685Z,0.85
2022-09-27T19:38:44.598Z,1.08
2022-09-27T19:41:13.362Z,1.10
2022-09-27T19:43:40.415Z,0.77
2022-09-27T19:46:11.067Z,0.93
2022-09-27T19:48:38.586Z,1.10
2022-09-27T19:51:06.670Z,1.00
2022-09-27T19:53:34.540Z,1.30
2022-09-27T19:56:06.326Z,1.20
2022-09-27T19:58:35.442Z,1.52
2022-09-27T20:01:20.334Z,1.08
2022-09-27T20:03:48.561Z,1.00
2022-09-27T20:06:17.578Z,1.90
2022-09-27T20:08:44.334Z,2.33
2022-09-27T20:11:16.729Z,4.28
2022-09-27T20:13:44.613Z,3.35
2022-09-27T20:16:23.601Z,2.92
2022-09-27T20:18:55.407Z,2.10
2022-09-27T20:21:24.520Z,2.13
2022-09-27T20:23:53.402Z,2.30
2022-09-27T20:26:22.498Z,2.20
2022-09-27T20:28:54.689Z,2.22
2022-09-27T20:31:23.882Z,2.28
2022-09-27T20:33:51.386Z,1.90
2022-09-27T20:36:41.962Z,2.00
2022-09-27T20:39:10.770Z,2.30
2022-09-27T20:41:39.632Z,2.63
2022-09-27T20:44:09.176Z,2.70
2022-09-27T20:46:38.146Z,1.90
2022-09-27T20:49:09.750Z,1.73
2022-09-27T20:51:39.577Z,1.80
2022-09-27T20:54:08.621Z,1.48
2022-09-27T20:56:37.984Z,2.38
2022-09-27T20:59:11.485Z,2.03
2022-09-27T21:01:43.588Z,2.55
2022-09-27T21:04:10.761Z,2.05
2022-09-27T21:06:37.504Z,1.50
2022-09-27T21:09:06.183Z,1.85
2022-09-27T21:11:33.973Z,2.03
2022-09-27T21:14:00.757Z,1.70
2022-09-27T21:16:28.739Z,1.30
2022-09-27T21:18:56.714Z,1.40
2022-09-27T21:21:24.643Z,1.45
2022-09-27T21:23:56.904Z,0.70
2022-09-27T21:26:24.610Z,0.80
2022-09-27T21:28:53.376Z,0.60
2022-09-27T21:31:23.280Z,1.20
2022-09-27T21:33:55.052Z,0.80
2022-09-27T21:36:40.025Z,0.60
2022-09-27T21:39:08.711Z,0.68
2022-09-27T21:41:35.641Z,0.93
2022-09-27T21:44:06.788Z,0.40
2022-09-27T21:46:33.670Z,0.50
2022-09-27T21:49:05.000Z,0.47
2022-09-27T21:51:38.348Z,0.60
2022-09-27T21:54:08.628Z,0.40
2022-09-27T21:56:38.341Z,0.77
2022-09-27T21:59:06.939Z,0.70
2022-09-27T22:01:35.266Z,0.57
2022-09-27T22:04:03.964Z,0.40
2022-09-27T22:06:33.144Z,0.82
2022-09-27T22:09:00.990Z,0.55
2022-09-27T22:11:33.556Z,0.63
2022-09-27T22:14:00.780Z,0.47
2022-09-27T22:16:28.612Z,0.70
2022-09-27T22:18:56.847Z,0.40
2022-09-27T22:21:32.512Z,0.60
2022-09-27T22:24:06.555Z,0.60
2022-09-27T22:26:36.764Z,0.50
2022-09-27T22:29:03.754Z,0.30
2022-09-27T22:31:30.454Z,0.30
2022-09-27T22:34:02.514Z,0.50
2022-09-27T22:36:30.820Z,0.40
2022-09-27T22:38:57.718Z,0.30
2022-09-27T22:41:24.822Z,0.20
2022-09-27T22:43:53.394Z,0.20
2022-09-27T22:46:21.050Z,0.25
2022-09-27T22:48:48.825Z,1.63
2022-09-27T22:51:15.785Z,0.30
2022-09-27T22:53:43.017Z,0.30
2022-09-27T22:56:16.097Z,0.40
2022-09-27T22:58:44.039Z,0.30
2022-09-27T23:01:18.535Z,0.65
2022-09-27T23:03:45.991Z,0.70
2022-09-27T23:06:14.476Z,1.20
2022-09-27T23:08:42.541Z,1.20
2022-09-27T23:11:14.470Z,0.90
2022-09-27T23:13:42.852Z,0.70
2022-09-27T23:16:13.085Z,0.60
2022-09-27T23:18:40.414Z,0.35
2022-09-27T23:23:36.647Z,0.47
2022-09-27T23:26:06.211Z,0.30
2022-09-27T23:28:33.897Z,0.20
2022-09-27T23:31:04.967Z,0.30
2022-09-27T23:33:31.653Z,0.25
2022-09-27T23:36:01.257Z,0.43
2022-09-27T23:38:30.845Z,0.30
2022-09-27T23:40:58.052Z,0.20
2022-09-27T23:43:25.156Z,0.40
2022-09-27T23:45:55.015Z,0.30
2022-09-27T23:48:21.890Z,0.50
2022-09-27T23:50:48.576Z,0.30
2022-09-27T23:53:15.317Z,0.20
2022-09-27T23:55:41.968Z,0.40
2022-09-27T23:58:08.654Z,0.40
